sensor_id;sensor_type;location;lat;lon;timestamp;temperature;humidity
3051;DHT22;1535;51.098;6.414;2023-11-19T00:01:01;12.50;99.90
3051;DHT22;1535;51.098;6.414;2023-11-19T00:03:30;12.50;99.90
3051;DHT22;1535;51.098;6.414;2023-11-19T00:05:59;12.50;99.90
3051;DHT22;1535;51.098;6.414;2023-11-19T00:08:26;12.60;99.90
3051;DHT22;1535;51.098;6.414;2023-11-19T00:10:54;12.60;99.90
3051;DHT22;1535;51.098;6.414;2023-11-19T00:13:22;12.60;99.90
3051;DHT22;1535;51.098;6.414;2023-11-19T00:15:51;12.60;99.90
3051;DHT22;1535;51.098;6.414;2023-11-19T00:18:18;12.60;99.90
3051;DHT22;1535;51.098;6.414;2023-11-19T00:20:46;12.60;99.90
3051;DHT22;1535;51.098;6.414;2023-11-19T00:23:12;12.60;99.90
3051;DHT22;1535;51.098;6.414;2023-11-19T00:25:39;12.70;99.90
3051;DHT22;1535;51.098;6.414;2023-11-19T00:28:08;12.70;99.90
3051;DHT22;1535;51.098;6.414;2023-11-19T00:30:36;12.70;99.90
3051;DHT22;1535;51.098;6.414;2023-11-19T00:33:02;12.70;99.90
3051;DHT22;1535;51.098;6.414;2023-11-19T00:35:30;12.60;99.90
3051;DHT22;1535;51.098;6.414;2023-11-19T00:37:58;12.70;99.90
3051;DHT22;1535;51.098;6.414;2023-11-19T00:40:26;12.70;99.90
3051;DHT22;1535;51.098;6.414;2023-11-19T00:42:54;12.70;99.90
3051;DHT22;1535;51.098;6.414;2023-11-19T00:45:23;12.80;99.90
3051;DHT22;1535;51.098;6.414;2023-11-19T00:47:51;12.70;99.90
3051;DHT22;1535;51.098;6.414;2023-11-19T00:50:18;12.70;99.90
3051;DHT22;1535;51.098;6.414;2023-11-19T00:52:46;12.80;99.90
3051;DHT22;1535;51.098;6.414;2023-11-19T00:55:13;12.80;99.90
3051;DHT22;1535;51.098;6.414;2023-11-19T00:57:40;12.70;99.90
3051;DHT22;1535;51.098;6.414;2023-11-19T01:00:08;12.80;99.90
3051;DHT22;1535;51.098;6.414;2023-11-19T01:02:45;12.80;99.90
3051;DHT22;1535;51.098;6.414;2023-11-19T01:05:16;12.80;99.90
3051;DHT22;1535;51.098;6.414;2023-11-19T01:07:46;12.80;99.90
3051;DHT22;1535;51.098;6.414;2023-11-19T01:10:13;12.80;99.90
3051;DHT22;1535;51.098;6.414;2023-11-19T01:12:41;12.80;99.90
3051;DHT22;1535;51.098;6.414;2023-11-19T01:15:09;12.90;99.90
3051;DHT22;1535;51.098;6.414;2023-11-19T01:17:37;12.80;99.90
3051;DHT22;1535;51.098;6.414;2023-11-19T01:20:06;12.80;99.90
3051;DHT22;1535;51.098;6.414;2023-11-19T01:22:33;12.80;99.90
3051;DHT22;1535;51.098;6.414;2023-11-19T01:25:01;12.90;99.90
3051;DHT22;1535;51.098;6.414;2023-11-19T01:27:28;12.90;99.90
3051;DHT22;1535;51.098;6.414;2023-11-19T01:29:55;12.90;99.90
3051;DHT22;1535;51.098;6.414;2023-11-19T01:32:23;12.90;99.90
3051;DHT22;1535;51.098;6.414;2023-11-19T01:34:50;12.90;99.90
3051;DHT22;1535;51.098;6.414;2023-11-19T01:37:19;12.90;99.90
3051;DHT22;1535;51.098;6.414;2023-11-19T01:39:46;12.90;99.90
3051;DHT22;1535;51.098;6.414;2023-11-19T01:42:13;12.90;99.90
3051;DHT22;1535;51.098;6.414;2023-11-19T01:44:41;13.00;99.90
3051;DHT22;1535;51.098;6.414;2023-11-19T01:47:08;13.00;99.90
3051;DHT22;1535;51.098;6.414;2023-11-19T01:49:35;13.10;99.90
3051;DHT22;1535;51.098;6.414;2023-11-19T01:52:02;13.10;99.90
3051;DHT22;1535;51.098;6.414;2023-11-19T01:54:31;13.10;99.90
3051;DHT22;1535;51.098;6.414;2023-11-19T01:56:58;13.10;99.90
3051;DHT22;1535;51.098;6.414;2023-11-19T01:59:27;13.20;99.90
3051;DHT22;1535;51.098;6.414;2023-11-19T02:01:55;13.20;99.90
3051;DHT22;1535;51.098;6.414;2023-11-19T02:04:22;13.20;99.90
3051;DHT22;1535;51.098;6.414;2023-11-19T02:06:50;13.20;99.90
3051;DHT22;1535;51.098;6.414;2023-11-19T02:09:19;13.20;99.90
3051;DHT22;1535;51.098;6.414;2023-11-19T02:11:48;13.30;99.90
3051;DHT22;1535;51.098;6.414;2023-11-19T02:14:17;13.30;99.90
3051;DHT22;1535;51.098;6.414;2023-11-19T02:16:45;13.30;99.90
3051;DHT22;1535;51.098;6.414;2023-11-19T02:19:13;13.30;99.90
3051;DHT22;1535;51.098;6.414;2023-11-19T02:21:39;13.30;99.90
3051;DHT22;1535;51.098;6.414;2023-11-19T02:24:10;13.20;99.90
3051;DHT22;1535;51.098;6.414;2023-11-19T02:26:42;13.20;99.90
3051;DHT22;1535;51.098;6.414;2023-11-19T02:29:12;13.10;99.90
3051;DHT22;1535;51.098;6.414;2023-11-19T02:31:39;13.10;99.90
3051;DHT22;1535;51.098;6.414;2023-11-19T02:34:07;13.00;99.90
3051;DHT22;1535;51.098;6.414;2023-11-19T02:36:33;13.00;99.90
3051;DHT22;1535;51.098;6.414;2023-11-19T02:39:01;13.00;99.90
3051;DHT22;1535;51.098;6.414;2023-11-19T02:41:29;13.00;99.90
3051;DHT22;1535;51.098;6.414;2023-11-19T02:43:57;13.00;99.90
3051;DHT22;1535;51.098;6.414;2023-11-19T02:46:26;12.90;99.90
3051;DHT22;1535;51.098;6.414;2023-11-19T02:48:53;12.90;99.90
3051;DHT22;1535;51.098;6.414;2023-11-19T02:51:20;12.90;99.90
3051;DHT22;1535;51.098;6.414;2023-11-19T02:53:47;13.00;99.90
3051;DHT22;1535;51.098;6.414;2023-11-19T02:56:15;13.00;99.90
3051;DHT22;1535;51.098;6.414;2023-11-19T02:58:46;13.00;99.90
3051;DHT22;1535;51.098;6.414;2023-11-19T03:01:22;13.10;99.90
3051;DHT22;1535;51.098;6.414;2023-11-19T03:03:56;13.10;99.90
3051;DHT22;1535;51.098;6.414;2023-11-19T03:06:23;13.10;99.90
3051;DHT22;1535;51.098;6.414;2023-11-19T03:08:51;13.10;99.90
3051;DHT22;1535;51.098;6.414;2023-11-19T03:11:18;13.20;99.90
3051;DHT22;1535;51.098;6.414;2023-11-19T03:13:45;13.20;99.90
3051;DHT22;1535;51.098;6.414;2023-11-19T03:16:12;13.30;99.90
3051;DHT22;1535;51.098;6.414;2023-11-19T03:18:39;13.30;99.90
3051;DHT22;1535;51.098;6.414;2023-11-19T03:21:08;13.30;99.90
3051;DHT22;1535;51.098;6.414;2023-11-19T03:23:35;13.30;99.90
3051;DHT22;1535;51.098;6.414;2023-11-19T03:26:02;13.30;99.90
3051;DHT22;1535;51.098;6.414;2023-11-19T03:28:31;13.30;99.90
3051;DHT22;1535;51.098;6.414;2023-11-19T03:30:58;13.40;99.90
3051;DHT22;1535;51.098;6.414;2023-11-19T03:33:25;13.40;99.90
3051;DHT22;1535;51.098;6.414;2023-11-19T03:35:54;13.40;99.90
3051;DHT22;1535;51.098;6.414;2023-11-19T03:38:23;13.30;99.90
3051;DHT22;1535;51.098;6.414;2023-11-19T03:40:50;13.30;99.90
3051;DHT22;1535;51.098;6.414;2023-11-19T03:43:17;13.30;99.90
3051;DHT22;1535;51.098;6.414;2023-11-19T03:45:45;13.20;99.90
3051;DHT22;1535;51.098;6.414;2023-11-19T03:48:13;13.20;99.90
3051;DHT22;1535;51.098;6.414;2023-11-19T03:50:42;13.20;99.90
3051;DHT22;1535;51.098;6.414;2023-11-19T03:53:11;13.20;99.90
3051;DHT22;1535;51.098;6.414;2023-11-19T03:55:40;13.10;99.90
3051;DHT22;1535;51.098;6.414;2023-11-19T03:58:07;12.90;99.90
3051;DHT22;1535;51.098;6.414;2023-11-19T04:00:34;12.80;99.90
3051;DHT22;1535;51.098;6.414;2023-11-19T04:03:01;12.70;99.90
3051;DHT22;1535;51.098;6.414;2023-11-19T04:05:29;12.70;99.90
3051;DHT22;1535;51.098;6.414;2023-11-19T04:07:55;12.60;99.90
3051;DHT22;1535;51.098;6.414;2023-11-19T04:10:22;12.60;99.90
3051;DHT22;1535;51.098;6.414;2023-11-19T04:12:51;12.50;99.90
3051;DHT22;1535;51.098;6.414;2023-11-19T04:15:18;12.50;99.90
3051;DHT22;1535;51.098;6.414;2023-11-19T04:17:45;12.50;99.90
3051;DHT22;1535;51.098;6.414;2023-11-19T04:20:13;12.50;99.90
3051;DHT22;1535;51.098;6.414;2023-11-19T04:22:41;12.50;99.90
3051;DHT22;1535;51.098;6.414;2023-11-19T04:25:08;12.50;99.90
3051;DHT22;1535;51.098;6.414;2023-11-19T04:27:35;12.50;99.90
3051;DHT22;1535;51.098;6.414;2023-11-19T04:30:04;12.50;99.90
3051;DHT22;1535;51.098;6.414;2023-11-19T04:32:35;12.50;99.90
3051;DHT22;1535;51.098;6.414;2023-11-19T04:35:04;12.50;99.90
3051;DHT22;1535;51.098;6.414;2023-11-19T04:37:33;12.50;99.90
3051;DHT22;1535;51.098;6.414;2023-11-19T04:40:00;12.60;99.90
3051;DHT22;1535;51.098;6.414;2023-11-19T04:42:27;12.60;99.90
3051;DHT22;1535;51.098;6.414;2023-11-19T04:44:55;12.70;99.90
3051;DHT22;1535;51.098;6.414;2023-11-19T04:47:23;12.80;99.90
3051;DHT22;1535;51.098;6.414;2023-11-19T04:49:51;12.80;99.90
3051;DHT22;1535;51.098;6.414;2023-11-19T04:52:18;12.80;99.90
3051;DHT22;1535;51.098;6.414;2023-11-19T04:54:46;12.80;99.90
3051;DHT22;1535;51.098;6.414;2023-11-19T04:57:13;12.90;99.90
3051;DHT22;1535;51.098;6.414;2023-11-19T04:59:41;12.80;99.90
3051;DHT22;1535;51.098;6.414;2023-11-19T05:02:08;12.70;99.90
3051;DHT22;1535;51.098;6.414;2023-11-19T05:04:37;12.70;99.90
3051;DHT22;1535;51.098;6.414;2023-11-19T05:07:04;12.70;99.90
3051;DHT22;1535;51.098;6.414;2023-11-19T05:09:31;12.60;99.90
3051;DHT22;1535;51.098;6.414;2023-11-19T05:11:58;12.60;99.90
3051;DHT22;1535;51.098;6.414;2023-11-19T05:14:25;12.50;99.90
3051;DHT22;1535;51.098;6.414;2023-11-19T05:16:52;12.50;99.90
3051;DHT22;1535;51.098;6.414;2023-11-19T05:19:19;12.40;99.90
3051;DHT22;1535;51.098;6.414;2023-11-19T05:21:48;12.40;99.90
3051;DHT22;1535;51.098;6.414;2023-11-19T05:24:17;12.30;99.90
3051;DHT22;1535;51.098;6.414;2023-11-19T05:26:45;12.30;99.90
3051;DHT22;1535;51.098;6.414;2023-11-19T05:29:13;12.30;99.90
3051;DHT22;1535;51.098;6.414;2023-11-19T05:31:40;12.30;99.90
3051;DHT22;1535;51.098;6.414;2023-11-19T05:34:07;12.30;99.90
3051;DHT22;1535;51.098;6.414;2023-11-19T05:36:34;12.30;99.90
3051;DHT22;1535;51.098;6.414;2023-11-19T05:39:03;12.30;99.90
3051;DHT22;1535;51.098;6.414;2023-11-19T05:41:30;12.30;99.90
3051;DHT22;1535;51.098;6.414;2023-11-19T05:43:57;12.30;99.90
3051;DHT22;1535;51.098;6.414;2023-11-19T05:46:25;12.30;99.90
3051;DHT22;1535;51.098;6.414;2023-11-19T05:48:53;12.20;99.90
3051;DHT22;1535;51.098;6.414;2023-11-19T05:51:20;12.20;99.90
3051;DHT22;1535;51.098;6.414;2023-11-19T05:53:49;12.20;99.90
3051;DHT22;1535;51.098;6.414;2023-11-19T05:56:17;12.20;99.90
3051;DHT22;1535;51.098;6.414;2023-11-19T05:58:47;12.20;99.90
3051;DHT22;1535;51.098;6.414;2023-11-19T06:01:14;12.20;99.90
3051;DHT22;1535;51.098;6.414;2023-11-19T06:03:42;12.10;99.90
3051;DHT22;1535;51.098;6.414;2023-11-19T06:06:13;12.20;99.90
3051;DHT22;1535;51.098;6.414;2023-11-19T06:08:39;12.20;99.90
3051;DHT22;1535;51.098;6.414;2023-11-19T06:11:06;12.10;99.90
3051;DHT22;1535;51.098;6.414;2023-11-19T06:13:35;12.10;99.90
3051;DHT22;1535;51.098;6.414;2023-11-19T06:16:02;12.10;99.90
3051;DHT22;1535;51.098;6.414;2023-11-19T06:18:28;12.00;99.90
3051;DHT22;1535;51.098;6.414;2023-11-19T06:20:57;12.00;99.90
3051;DHT22;1535;51.098;6.414;2023-11-19T06:23:24;11.90;99.90
3051;DHT22;1535;51.098;6.414;2023-11-19T06:25:50;12.00;99.90
3051;DHT22;1535;51.098;6.414;2023-11-19T06:28:17;11.90;99.90
3051;DHT22;1535;51.098;6.414;2023-11-19T06:30:46;11.90;99.90
3051;DHT22;1535;51.098;6.414;2023-11-19T06:33:13;11.90;99.90
3051;DHT22;1535;51.098;6.414;2023-11-19T06:35:40;11.90;99.90
3051;DHT22;1535;51.098;6.414;2023-11-19T06:38:07;11.90;99.90
3051;DHT22;1535;51.098;6.414;2023-11-19T06:40:34;11.90;99.90
3051;DHT22;1535;51.098;6.414;2023-11-19T06:43:01;11.90;99.90
3051;DHT22;1535;51.098;6.414;2023-11-19T06:45:29;11.80;99.90
3051;DHT22;1535;51.098;6.414;2023-11-19T06:47:58;11.80;99.90
3051;DHT22;1535;51.098;6.414;2023-11-19T06:50:28;11.80;99.90
3051;DHT22;1535;51.098;6.414;2023-11-19T06:52:55;11.70;99.90
3051;DHT22;1535;51.098;6.414;2023-11-19T06:55:22;11.70;99.90
3051;DHT22;1535;51.098;6.414;2023-11-19T06:57:49;11.70;99.90
3051;DHT22;1535;51.098;6.414;2023-11-19T07:00:16;11.70;99.90
3051;DHT22;1535;51.098;6.414;2023-11-19T07:02:44;11.70;99.90
3051;DHT22;1535;51.098;6.414;2023-11-19T07:05:12;11.60;99.90
3051;DHT22;1535;51.098;6.414;2023-11-19T07:07:39;11.60;99.90
3051;DHT22;1535;51.098;6.414;2023-11-19T07:10:07;11.60;99.90
3051;DHT22;1535;51.098;6.414;2023-11-19T07:12:35;11.60;99.90
3051;DHT22;1535;51.098;6.414;2023-11-19T07:15:02;11.60;99.90
3051;DHT22;1535;51.098;6.414;2023-11-19T07:17:29;11.60;99.90
3051;DHT22;1535;51.098;6.414;2023-11-19T07:19:57;11.50;99.90
3051;DHT22;1535;51.098;6.414;2023-11-19T07:22:26;11.60;99.90
3051;DHT22;1535;51.098;6.414;2023-11-19T07:24:55;11.60;99.90
3051;DHT22;1535;51.098;6.414;2023-11-19T07:27:22;11.60;99.90
3051;DHT22;1535;51.098;6.414;2023-11-19T07:29:49;11.60;99.90
3051;DHT22;1535;51.098;6.414;2023-11-19T07:32:17;11.60;99.90
3051;DHT22;1535;51.098;6.414;2023-11-19T07:34:44;11.60;99.90
3051;DHT22;1535;51.098;6.414;2023-11-19T07:37:11;11.60;99.90
3051;DHT22;1535;51.098;6.414;2023-11-19T07:39:39;11.60;99.90
3051;DHT22;1535;51.098;6.414;2023-11-19T07:42:08;11.60;99.90
3051;DHT22;1535;51.098;6.414;2023-11-19T07:44:36;11.60;99.90
3051;DHT22;1535;51.098;6.414;2023-11-19T07:47:03;11.70;99.90
3051;DHT22;1535;51.098;6.414;2023-11-19T07:49:30;11.80;99.90
3051;DHT22;1535;51.098;6.414;2023-11-19T07:51:57;11.80;99.90
3051;DHT22;1535;51.098;6.414;2023-11-19T07:54:24;11.80;99.90
3051;DHT22;1535;51.098;6.414;2023-11-19T07:56:52;11.80;99.90
3051;DHT22;1535;51.098;6.414;2023-11-19T07:59:20;11.80;99.90
3051;DHT22;1535;51.098;6.414;2023-11-19T08:01:48;11.90;99.90
3051;DHT22;1535;51.098;6.414;2023-11-19T08:04:15;11.80;99.90
3051;DHT22;1535;51.098;6.414;2023-11-19T08:06:42;11.80;99.90
3051;DHT22;1535;51.098;6.414;2023-11-19T08:09:09;11.90;99.90
3051;DHT22;1535;51.098;6.414;2023-11-19T08:11:39;11.90;99.90
3051;DHT22;1535;51.098;6.414;2023-11-19T08:14:07;11.90;99.90
3051;DHT22;1535;51.098;6.414;2023-11-19T08:16:35;11.90;99.90
3051;DHT22;1535;51.098;6.414;2023-11-19T08:19:03;12.00;99.90
3051;DHT22;1535;51.098;6.414;2023-11-19T08:21:30;12.00;99.90
3051;DHT22;1535;51.098;6.414;2023-11-19T08:23:57;12.10;99.90
3051;DHT22;1535;51.098;6.414;2023-11-19T08:26:25;12.10;99.90
3051;DHT22;1535;51.098;6.414;2023-11-19T08:28:52;12.10;99.90
3051;DHT22;1535;51.098;6.414;2023-11-19T08:31:20;12.10;99.90
3051;DHT22;1535;51.098;6.414;2023-11-19T08:33:47;12.20;99.90
3051;DHT22;1535;51.098;6.414;2023-11-19T08:36:17;12.20;99.90
3051;DHT22;1535;51.098;6.414;2023-11-19T08:38:45;12.20;99.90
3051;DHT22;1535;51.098;6.414;2023-11-19T08:41:12;12.20;99.90
3051;DHT22;1535;51.098;6.414;2023-11-19T08:43:40;12.20;99.90
3051;DHT22;1535;51.098;6.414;2023-11-19T08:46:09;12.30;99.90
3051;DHT22;1535;51.098;6.414;2023-11-19T08:48:38;12.30;99.90
3051;DHT22;1535;51.098;6.414;2023-11-19T08:51:05;12.30;99.90
3051;DHT22;1535;51.098;6.414;2023-11-19T08:53:33;12.30;99.90
3051;DHT22;1535;51.098;6.414;2023-11-19T08:56:00;12.40;99.90
3051;DHT22;1535;51.098;6.414;2023-11-19T08:58:28;12.40;99.90
3051;DHT22;1535;51.098;6.414;2023-11-19T09:00:57;12.40;99.90
3051;DHT22;1535;51.098;6.414;2023-11-19T09:03:24;12.40;99.90
3051;DHT22;1535;51.098;6.414;2023-11-19T09:08:35;12.50;99.90
3051;DHT22;1535;51.098;6.414;2023-11-19T09:11:17;12.50;99.90
3051;DHT22;1535;51.098;6.414;2023-11-19T09:13:44;12.60;99.90
3051;DHT22;1535;51.098;6.414;2023-11-19T09:16:12;12.60;99.90
3051;DHT22;1535;51.098;6.414;2023-11-19T09:18:39;12.60;99.90
3051;DHT22;1535;51.098;6.414;2023-11-19T09:21:08;12.80;99.90
3051;DHT22;1535;51.098;6.414;2023-11-19T09:23:36;12.90;99.90
3051;DHT22;1535;51.098;6.414;2023-11-19T09:26:05;12.90;99.90
3051;DHT22;1535;51.098;6.414;2023-11-19T09:28:32;12.90;99.90
3051;DHT22;1535;51.098;6.414;2023-11-19T09:30:58;12.90;99.90
3051;DHT22;1535;51.098;6.414;2023-11-19T09:33:26;13.00;99.90
3051;DHT22;1535;51.098;6.414;2023-11-19T09:35:53;13.00;99.90
3051;DHT22;1535;51.098;6.414;2023-11-19T09:38:22;13.10;99.90
3051;DHT22;1535;51.098;6.414;2023-11-19T09:40:49;13.20;99.90
3051;DHT22;1535;51.098;6.414;2023-11-19T09:43:16;13.20;99.90
3051;DHT22;1535;51.098;6.414;2023-11-19T09:45:48;13.20;99.90
3051;DHT22;1535;51.098;6.414;2023-11-19T09:48:17;13.30;99.90
3051;DHT22;1535;51.098;6.414;2023-11-19T09:50:47;13.30;99.90
3051;DHT22;1535;51.098;6.414;2023-11-19T09:53:15;13.30;99.90
3051;DHT22;1535;51.098;6.414;2023-11-19T09:55:45;13.30;99.90
3051;DHT22;1535;51.098;6.414;2023-11-19T09:58:12;13.20;99.90
3051;DHT22;1535;51.098;6.414;2023-11-19T10:00:40;13.20;99.90
3051;DHT22;1535;51.098;6.414;2023-11-19T10:03:10;13.30;99.90
3051;DHT22;1535;51.098;6.414;2023-11-19T10:05:37;13.30;99.90
3051;DHT22;1535;51.098;6.414;2023-11-19T10:08:06;13.60;99.90
3051;DHT22;1535;51.098;6.414;2023-11-19T10:10:33;13.70;99.90
3051;DHT22;1535;51.098;6.414;2023-11-19T10:13:02;13.90;99.90
3051;DHT22;1535;51.098;6.414;2023-11-19T10:15:33;13.90;99.90
3051;DHT22;1535;51.098;6.414;2023-11-19T10:18:02;14.00;99.90
3051;DHT22;1535;51.098;6.414;2023-11-19T10:20:35;14.00;99.90
3051;DHT22;1535;51.098;6.414;2023-11-19T10:23:02;14.10;99.90
3051;DHT22;1535;51.098;6.414;2023-11-19T10:25:29;14.30;99.90
3051;DHT22;1535;51.098;6.414;2023-11-19T10:27:58;14.20;99.90
3051;DHT22;1535;51.098;6.414;2023-11-19T10:30:28;14.10;99.90
3051;DHT22;1535;51.098;6.414;2023-11-19T10:33:05;14.20;99.90
3051;DHT22;1535;51.098;6.414;2023-11-19T10:35:33;14.10;99.90
3051;DHT22;1535;51.098;6.414;2023-11-19T10:38:00;13.90;99.90
3051;DHT22;1535;51.098;6.414;2023-11-19T10:40:41;14.00;99.90
3051;DHT22;1535;51.098;6.414;2023-11-19T10:43:08;14.10;99.90
3051;DHT22;1535;51.098;6.414;2023-11-19T10:45:38;14.10;99.90
3051;DHT22;1535;51.098;6.414;2023-11-19T10:48:06;14.10;99.90
3051;DHT22;1535;51.098;6.414;2023-11-19T10:50:33;14.10;99.90
3051;DHT22;1535;51.098;6.414;2023-11-19T10:53:02;13.90;99.90
3051;DHT22;1535;51.098;6.414;2023-11-19T10:55:31;13.80;99.90
3051;DHT22;1535;51.098;6.414;2023-11-19T10:57:59;13.70;99.90
3051;DHT22;1535;51.098;6.414;2023-11-19T11:00:29;14.10;99.90
3051;DHT22;1535;51.098;6.414;2023-11-19T11:03:01;14.50;99.90
3051;DHT22;1535;51.098;6.414;2023-11-19T11:05:32;14.70;99.90
3051;DHT22;1535;51.098;6.414;2023-11-19T11:08:00;14.60;99.90
3051;DHT22;1535;51.098;6.414;2023-11-19T11:10:28;14.70;99.90
3051;DHT22;1535;51.098;6.414;2023-11-19T11:12:59;14.60;99.90
3051;DHT22;1535;51.098;6.414;2023-11-19T11:15:30;14.80;99.90
3051;DHT22;1535;51.098;6.414;2023-11-19T11:18:01;15.00;99.90
3051;DHT22;1535;51.098;6.414;2023-11-19T11:20:30;14.90;99.90
3051;DHT22;1535;51.098;6.414;2023-11-19T11:23:26;15.00;99.90
3051;DHT22;1535;51.098;6.414;2023-11-19T11:26:16;14.90;99.90
3051;DHT22;1535;51.098;6.414;2023-11-19T11:28:52;15.00;99.90
3051;DHT22;1535;51.098;6.414;2023-11-19T11:31:31;15.10;99.90
3051;DHT22;1535;51.098;6.414;2023-11-19T11:34:19;15.10;99.90
3051;DHT22;1535;51.098;6.414;2023-11-19T11:36:56;14.90;99.90
3051;DHT22;1535;51.098;6.414;2023-11-19T11:39:25;14.60;99.90
3051;DHT22;1535;51.098;6.414;2023-11-19T11:42:32;14.40;99.90
3051;DHT22;1535;51.098;6.414;2023-11-19T11:45:00;14.30;99.90
3051;DHT22;1535;51.098;6.414;2023-11-19T11:50:30;14.00;99.90
3051;DHT22;1535;51.098;6.414;2023-11-19T11:53:17;13.90;99.90
3051;DHT22;1535;51.098;6.414;2023-11-19T11:55:58;13.90;99.90
3051;DHT22;1535;51.098;6.414;2023-11-19T11:58:34;13.90;99.90
3051;DHT22;1535;51.098;6.414;2023-11-19T12:01:04;14.10;99.90
3051;DHT22;1535;51.098;6.414;2023-11-19T12:03:37;14.20;99.90
3051;DHT22;1535;51.098;6.414;2023-11-19T12:06:06;14.30;99.90
3051;DHT22;1535;51.098;6.414;2023-11-19T12:08:35;14.70;99.90
3051;DHT22;1535;51.098;6.414;2023-11-19T12:11:02;15.00;99.90
3051;DHT22;1535;51.098;6.414;2023-11-19T12:13:53;15.20;99.90
3051;DHT22;1535;51.098;6.414;2023-11-19T12:16:24;14.90;99.90
3051;DHT22;1535;51.098;6.414;2023-11-19T12:18:53;14.70;99.90
3051;DHT22;1535;51.098;6.414;2023-11-19T12:21:40;14.60;99.90
3051;DHT22;1535;51.098;6.414;2023-11-19T12:24:07;14.30;99.90
3051;DHT22;1535;51.098;6.414;2023-11-19T12:26:37;14.00;99.90
3051;DHT22;1535;51.098;6.414;2023-11-19T12:29:05;13.80;99.90
3051;DHT22;1535;51.098;6.414;2023-11-19T12:31:33;13.70;99.90
3051;DHT22;1535;51.098;6.414;2023-11-19T12:34:11;13.50;99.90
3051;DHT22;1535;51.098;6.414;2023-11-19T12:36:43;13.40;99.90
3051;DHT22;1535;51.098;6.414;2023-11-19T12:39:10;13.70;99.90
3051;DHT22;1535;51.098;6.414;2023-11-19T12:41:54;14.00;99.90
3051;DHT22;1535;51.098;6.414;2023-11-19T12:44:21;13.80;99.90
3051;DHT22;1535;51.098;6.414;2023-11-19T12:46:59;14.00;99.90
3051;DHT22;1535;51.098;6.414;2023-11-19T12:49:27;13.90;99.90
3051;DHT22;1535;51.098;6.414;2023-11-19T12:51:56;14.10;99.90
3051;DHT22;1535;51.098;6.414;2023-11-19T12:54:32;14.60;99.90
3051;DHT22;1535;51.098;6.414;2023-11-19T12:56:59;15.00;99.90
3051;DHT22;1535;51.098;6.414;2023-11-19T12:59:26;15.10;99.90
3051;DHT22;1535;51.098;6.414;2023-11-19T13:01:55;15.20;99.90
3051;DHT22;1535;51.098;6.414;2023-11-19T13:04:35;15.00;99.90
3051;DHT22;1535;51.098;6.414;2023-11-19T13:07:04;14.90;99.90
3051;DHT22;1535;51.098;6.414;2023-11-19T13:09:31;14.90;99.90
3051;DHT22;1535;51.098;6.414;2023-11-19T13:11:58;14.90;99.90
3051;DHT22;1535;51.098;6.414;2023-11-19T13:14:36;14.90;99.90
3051;DHT22;1535;51.098;6.414;2023-11-19T13:17:04;15.10;99.90
3051;DHT22;1535;51.098;6.414;2023-11-19T13:19:34;15.10;99.90
3051;DHT22;1535;51.098;6.414;2023-11-19T13:22:01;15.10;99.90
3051;DHT22;1535;51.098;6.414;2023-11-19T13:24:29;15.20;99.90
3051;DHT22;1535;51.098;6.414;2023-11-19T13:26:56;15.10;99.90
3051;DHT22;1535;51.098;6.414;2023-11-19T13:29:26;15.00;99.90
3051;DHT22;1535;51.098;6.414;2023-11-19T13:31:53;15.00;99.90
3051;DHT22;1535;51.098;6.414;2023-11-19T13:34:20;15.00;99.90
3051;DHT22;1535;51.098;6.414;2023-11-19T13:36:47;15.10;99.90
3051;DHT22;1535;51.098;6.414;2023-11-19T13:39:14;14.90;99.90
3051;DHT22;1535;51.098;6.414;2023-11-19T13:41:49;14.80;99.90
3051;DHT22;1535;51.098;6.414;2023-11-19T13:44:16;14.20;99.90
3051;DHT22;1535;51.098;6.414;2023-11-19T13:46:45;14.20;99.90
3051;DHT22;1535;51.098;6.414;2023-11-19T13:49:13;14.10;99.90
3051;DHT22;1535;51.098;6.414;2023-11-19T13:51:41;14.00;99.90
3051;DHT22;1535;51.098;6.414;2023-11-19T13:54:08;13.70;99.90
3051;DHT22;1535;51.098;6.414;2023-11-19T13:56:35;13.40;99.90
3051;DHT22;1535;51.098;6.414;2023-11-19T13:59:03;13.20;99.90
3051;DHT22;1535;51.098;6.414;2023-11-19T14:01:30;13.00;99.90
3051;DHT22;1535;51.098;6.414;2023-11-19T14:03:58;12.90;99.90
3051;DHT22;1535;51.098;6.414;2023-11-19T14:06:24;12.70;99.90
3051;DHT22;1535;51.098;6.414;2023-11-19T14:08:53;12.60;99.90
3051;DHT22;1535;51.098;6.414;2023-11-19T14:11:19;12.30;99.90
3051;DHT22;1535;51.098;6.414;2023-11-19T14:13:46;12.10;99.90
3051;DHT22;1535;51.098;6.414;2023-11-19T14:16:16;12.10;99.90
3051;DHT22;1535;51.098;6.414;2023-11-19T14:18:44;12.00;99.90
3051;DHT22;1535;51.098;6.414;2023-11-19T14:21:11;12.00;99.90
3051;DHT22;1535;51.098;6.414;2023-11-19T14:23:37;12.20;99.90
3051;DHT22;1535;51.098;6.414;2023-11-19T14:26:04;12.30;99.90
3051;DHT22;1535;51.098;6.414;2023-11-19T14:28:31;12.40;99.90
3051;DHT22;1535;51.098;6.414;2023-11-19T14:30:58;12.50;99.90
3051;DHT22;1535;51.098;6.414;2023-11-19T14:33:27;12.70;99.90
3051;DHT22;1535;51.098;6.414;2023-11-19T14:35:53;12.70;99.90
3051;DHT22;1535;51.098;6.414;2023-11-19T14:38:21;12.70;99.90
3051;DHT22;1535;51.098;6.414;2023-11-19T14:40:48;12.60;99.90
3051;DHT22;1535;51.098;6.414;2023-11-19T14:43:15;12.50;99.90
3051;DHT22;1535;51.098;6.414;2023-11-19T14:45:42;12.50;99.90
3051;DHT22;1535;51.098;6.414;2023-11-19T14:48:09;12.40;99.90
3051;DHT22;1535;51.098;6.414;2023-11-19T14:50:38;12.30;99.90
3051;DHT22;1535;51.098;6.414;2023-11-19T14:53:05;12.10;99.90
3051;DHT22;1535;51.098;6.414;2023-11-19T14:55:32;11.90;99.90
3051;DHT22;1535;51.098;6.414;2023-11-19T14:57:59;11.80;99.90
3051;DHT22;1535;51.098;6.414;2023-11-19T15:00:26;11.70;99.90
3051;DHT22;1535;51.098;6.414;2023-11-19T15:02:54;11.70;99.90
3051;DHT22;1535;51.098;6.414;2023-11-19T15:05:21;11.60;99.90
3051;DHT22;1535;51.098;6.414;2023-11-19T15:07:49;11.60;99.90
3051;DHT22;1535;51.098;6.414;2023-11-19T15:10:16;11.60;99.90
3051;DHT22;1535;51.098;6.414;2023-11-19T15:12:43;11.60;99.90
3051;DHT22;1535;51.098;6.414;2023-11-19T15:15:11;11.50;99.90
3051;DHT22;1535;51.098;6.414;2023-11-19T15:17:39;11.50;99.90
3051;DHT22;1535;51.098;6.414;2023-11-19T15:20:07;11.40;99.90
3051;DHT22;1535;51.098;6.414;2023-11-19T15:22:34;11.40;99.90
3051;DHT22;1535;51.098;6.414;2023-11-19T15:25:03;11.40;99.90
3051;DHT22;1535;51.098;6.414;2023-11-19T15:27:32;11.40;99.90
3051;DHT22;1535;51.098;6.414;2023-11-19T15:29:59;11.40;99.90
3051;DHT22;1535;51.098;6.414;2023-11-19T15:32:26;11.40;99.90
3051;DHT22;1535;51.098;6.414;2023-11-19T15:34:54;11.40;99.90
3051;DHT22;1535;51.098;6.414;2023-11-19T15:37:21;11.40;99.90
3051;DHT22;1535;51.098;6.414;2023-11-19T15:39:49;11.40;99.90
3051;DHT22;1535;51.098;6.414;2023-11-19T15:42:18;11.40;99.90
3051;DHT22;1535;51.098;6.414;2023-11-19T15:44:45;11.40;99.90
3051;DHT22;1535;51.098;6.414;2023-11-19T15:47:13;11.40;99.90
3051;DHT22;1535;51.098;6.414;2023-11-19T15:49:40;11.40;99.90
3051;DHT22;1535;51.098;6.414;2023-11-19T15:52:07;11.40;99.90
3051;DHT22;1535;51.098;6.414;2023-11-19T15:54:34;11.40;99.90
3051;DHT22;1535;51.098;6.414;2023-11-19T15:57:03;11.40;99.90
3051;DHT22;1535;51.098;6.414;2023-11-19T15:59:31;11.40;99.90
3051;DHT22;1535;51.098;6.414;2023-11-19T16:01:58;11.40;99.90
3051;DHT22;1535;51.098;6.414;2023-11-19T16:04:27;11.30;99.90
3051;DHT22;1535;51.098;6.414;2023-11-19T16:06:54;11.30;99.90
3051;DHT22;1535;51.098;6.414;2023-11-19T16:09:22;11.30;99.90
3051;DHT22;1535;51.098;6.414;2023-11-19T16:11:49;11.40;99.90
3051;DHT22;1535;51.098;6.414;2023-11-19T16:14:16;11.40;99.90
3051;DHT22;1535;51.098;6.414;2023-11-19T16:16:44;11.40;99.90